Decoded Metar for PMDY (MIDWAY in MIDWAY ISLAND) (IATA:MDY) | Meteo·Mobile Aviation Weather
aviador You're here:

PMDY Decoded Metar

MIDWAY in MIDWAY ISLAND
Report Time2018-10-18 08:30:00
UTC Time2018-10-18 08:55:11
Flight Rules vfr VFR
Wind050° at 03 kt
W.Decomp.*RWY 06: 2.8 kt HW 1 kt LCW
W.Rank050° ranks 8
Current wind is below 050° avg. (9.6)
Visibility9999 m
Phenomena:N/A
Clouds:Few 023 Hf
Expected CloudBase > 1,200 ft AGL from Temp-Dew spread
CeilingNone
Temp23°C (ISA +8)
Dew Point20°C (83% RH)
QNH1023 hPa
Density Alt919 ft
Elevation13 ft
Report Wrong Elevation
Raw Report
PMDY 180830Z AUTO 05003KT 10SM FEW023 23/20 A3021 RMK AO2=

Extra information for PMDY:More info

Metar Taf Metar & Taf Last 4 Metars F.Rules Stats Wind Profile Meteogram Temp Stats Airport Information Weather charts Add Link Nearby VenuesMetar ALERT Operation Metar Decoded Social comments